Hauptseite
METAR-TAF:

METAR-TAF

Flughäfen :

Westerland, Deutschland

Flughafen Sylt

Breite: 54-55N, Länge: 008-21E, Höhe: 16 m

Beobachtung

Neuester Wetterbericht von vor 15 Stunden und 38 Minuten, um 17:20 UTC
Wind 15 kt aus Südwest
Temperatur 5°C
Luftfeuchtigkeit 100%
Luftdruck 1003 hPa
Sichtweite: 0700 m
Geschlossene Wolkendecke in der Höhe von 100 ft
Nebel

METAR: EDXW 261720Z 23015KT 0700 R32/P2000D FG OVC001 05/05 Q1003

Zeit: 09:58 (08:58 UTC)

Prognose

Neuester Wetterbericht von vor 18 Stunden und 58 Minuten, um 14:00 UTC
Gültige Prognose vom 26 um 15 UTC bis 26 um 18 UTC
Wind 15 kt aus Südwest
Sichtweite: 2500 m
Geschlossene Wolkendecke in der Höhe von 100 ft
feuchter Dunst
Wahrscheinlichkeit 30% :
Zeitweise
vom 26 um 15 UTC bis 26 um 18 UTC
Sichtweite: 6000 m
Geschlossene Wolkendecke in der Höhe von 300 ft

TAF: EDXW 261400Z 2615/2618 22015KT 2500 BR OVC001 PROB30 TEMPO 2615/2618 6000 OVC003

Wetterbeobachtungen und Prognosen von mehr als 4000 Flughäfen (METAR und TAF Bericht).

Die verfügbaren Stationen werden durch gelbe und rote Markierungen auf der Karte dargestellt.

Führen Sie die Maus auf sie, um den Namen der Station zu sehen.

Darauf klicken, um die Beobachtung von Wetterbeobachtungen und Prognosen zu sehen.

Um die Karte zu ändern : klicken Sie auf den grünen Tasten mit einem schwarzen Kreuz Zum Vergrößern, auf den grünen Button mit einem Gedankenstrich zu verkleinern, oder auf die grünen Pfeile für benachbarte Karten.


METAR-TAF: